Disclaimer

Please do not use the information listed here in-flight or in-navigation, as they are not provided to us by the airports but are provided by volunteers, so they might be outdated.

Search


Regions


Airport information page

No radio frequency information is available.

Airport informations:
Latitude: 05° 31' 52.65" S
Longitude: 047° 27' 36.18" W
Elevation: 431 feet - 131 meters
Operating hours: Remarks
Operating agency: Civil government, landing fees and diplomatic clearance may be required
Timezone: UTC-3(-2DT)
Fuel: Jet A1, without icing nhibitor.

100/130 octane gasoline, leaded, MIL-L-5572F (GREEN)

Runway information:
07/25 - 5899 x 148 feet< - >1798 x 45 meters

Recent METARs:
SBIZ 210600Z 07004KT 9999 FEW010 BKN015 BKN070 23/23 Q1009 RETS
SBIZ 210600Z 07004KT 9999 FEW010 BKN015 BKN070 23/23 Q1009 RETS
SBIZ 210600Z 07004KT 9999 FEW010 BKN015 BKN070 23/23 Q1009 RETS

Airport on the map: